Palmarolle, Canada
Current Conditions -  °F | °C
As of 4:00 AM on Wednesday 26 Nov 2014 (Local Time) from CYUY Reporting Station
Light Snow Light Snow  
Wind Chill:   Ceiling: 1200
Heat Index: 16°   Visibility: 8mi
Dew Point: 14°   Wind: 6mph
Humidity: 93%   Direction: 260°W
Pressure: 30.17"   Gusts: NA
Location:  48.67°N, 79.2°W
Report Text: CYUY 260900Z 26005KT 8SM -SN BKN012 OVC018 M09/M10 A3017 RMK SC6SC2 SLP240
Loading
Personal Weather Stations






























Interactive Weather Map New forecast layout! Learn more

10-Day Weather Forecast

Advertisements
Track Severe Weather on mobile